Terminal Aerodrome Forecast
Issued by NWS

Home | Current Version | Previous Version | Text Only | Print | Product List | Glossary On
Versions: 1 2 3 4 5 6 7 8 9 10 11 12 13 14 15 16 17 18 19 20 21 22 23 24
000
FTUS46 KHNX 102332
TAFVIS
TAF
KVIS 102332Z 1100/1124 12005KT 5SM HZ BKN070
     FM110400 12004KT 4SM -RA BR OVC050
     FM110700 VRB03KT 4SM RA BR OVC025
     FM111000 VRB04KT 2SM BR OVC007
     FM111900 30003KT 4SM HZ BKN015=

USA.gov is the U.S. government's official web portal to all federal, state and local government web resources and services.